Accueil
METAR-TAF:

METAR-TAF

Aéroports :

Goldsboro, Caroline du Nord, États-Unis

latitude: 35-27-38N, longitude: 077-57-54W, altitude: 40 m

Observation

Le bulletin a été fait il y a 17 minutes, à 21:15 UTC
Vent 7 kt de nord-ouest
Température 14°C
Humidité 44%
Pression 1020 hPa
Visibilité: 16.1 km
Ciel clair

METAR: KGWW 202115Z AUTO 32007KT 10SM CLR 14/02 A3011 RMK AO2 T01410023

Heure: 16:32 (21:32 UTC)


TAF: absent

Observations et prévisions météorologiques de plus de 4000 aéroports (messages METAR et TAF).

Les stations disponibles sont représentées par des disques jaunes et rouges sur la carte.

Passer la souris dessus pour voir le nom de la station.

Cliquer dessus pour voir les observations et prévisions météorologiques.

Pour changer de carte: cliquez sur les boutons verts avec une croix noire pour zoomer, sur le bouton vert avec un tiret pour effectuer un zoom arrière, ou sur les flèches vertes pour les cartes adjacentes.


METAR-TAF: